createdAt,value
2022-07-30T00:02:06.302Z,7.55
2022-07-30T00:04:33.047Z,7.35
2022-07-30T00:07:07.172Z,5.28
2022-07-30T00:09:34.371Z,5.90
2022-07-30T00:12:08.061Z,5.13
2022-07-30T00:14:55.089Z,6.07
2022-07-30T00:19:56.119Z,6.00
2022-07-30T00:22:23.917Z,8.55
2022-07-30T00:24:58.076Z,5.85
2022-07-30T00:27:32.109Z,5.75
2022-07-30T00:30:05.280Z,6.30
2022-07-30T00:32:32.063Z,5.70
2022-07-30T00:34:58.672Z,5.20
2022-07-30T00:37:32.266Z,6.57
2022-07-30T00:39:58.937Z,4.40
2022-07-30T00:42:44.071Z,4.50
2022-07-30T00:45:12.332Z,5.05
2022-07-30T00:47:46.258Z,4.88
2022-07-30T00:50:14.733Z,5.38
2022-07-30T00:52:42.864Z,4.28
2022-07-30T00:55:19.262Z,5.05
2022-07-30T00:57:52.066Z,8.38
2022-07-30T01:00:19.053Z,6.95
2022-07-30T01:02:45.994Z,4.55
2022-07-30T01:05:20.081Z,5.78
2022-07-30T01:07:47.483Z,5.00
2022-07-30T01:10:22.071Z,6.55
2022-07-30T01:12:49.030Z,6.68
2022-07-30T01:15:29.090Z,7.75
2022-07-30T01:18:12.081Z,5.68
2022-07-30T01:20:57.079Z,5.32
2022-07-30T01:23:30.566Z,5.53
2022-07-30T01:26:10.085Z,6.53
2022-07-30T01:28:49.001Z,5.50
2022-07-30T01:31:24.157Z,5.75
2022-07-30T01:33:51.406Z,6.35
2022-07-30T01:36:29.057Z,7.75
2022-07-30T01:38:56.345Z,7.80
2022-07-30T01:41:32.129Z,8.95
2022-07-30T01:44:06.077Z,6.87
2022-07-30T01:46:33.789Z,10.60
2022-07-30T01:49:02.506Z,7.18
2022-07-30T01:51:38.088Z,6.03
2022-07-30T01:54:09.648Z,6.53
2022-07-30T01:56:45.133Z,7.38
2022-07-30T01:59:14.142Z,7.60
2022-07-30T02:01:47.221Z,10.63
2022-07-30T02:04:14.542Z,7.72
2022-07-30T02:06:54.073Z,9.88
2022-07-30T02:09:27.001Z,9.68
2022-07-30T02:12:21.121Z,9.52
2022-07-30T02:15:00.794Z,8.80
2022-07-30T02:17:49.064Z,10.32
2022-07-30T02:20:17.840Z,16.77
2022-07-30T02:22:54.081Z,9.63
2022-07-30T02:25:29.077Z,9.82
2022-07-30T02:28:00.702Z,11.27
2022-07-30T02:30:38.057Z,8.38
2022-07-30T02:33:10.653Z,9.23
2022-07-30T02:35:45.047Z,9.65
2022-07-30T02:38:16.036Z,7.20
2022-07-30T02:40:51.055Z,6.53
2022-07-30T02:43:18.385Z,6.22
2022-07-30T02:45:55.129Z,6.78
2022-07-30T02:48:34.525Z,6.97
2022-07-30T02:51:11.068Z,6.70
2022-07-30T02:53:45.079Z,9.27
2022-07-30T02:56:20.059Z,6.38
2022-07-30T02:58:48.861Z,7.03
2022-07-30T03:01:25.059Z,6.80
2022-07-30T03:03:52.833Z,6.90
2022-07-30T03:06:27.059Z,18.13
2022-07-30T03:08:55.028Z,6.85
2022-07-30T03:11:30.262Z,8.30
2022-07-30T03:14:04.215Z,8.13
2022-07-30T03:16:46.060Z,8.73
2022-07-30T03:19:24.196Z,10.23
2022-07-30T03:21:53.785Z,7.82
2022-07-30T03:24:30.059Z,10.38
2022-07-30T03:26:58.669Z,9.43
2022-07-30T03:29:34.052Z,12.40
2022-07-30T03:32:01.161Z,12.15
2022-07-30T03:34:35.224Z,8.65
2022-07-30T03:37:05.172Z,11.65
2022-07-30T03:39:43.034Z,9.05
2022-07-30T03:42:10.661Z,10.48
2022-07-30T03:44:44.260Z,8.27
2022-07-30T03:47:12.551Z,10.73
2022-07-30T03:49:46.029Z,14.60
2022-07-30T03:52:12.882Z,16.00
2022-07-30T03:54:47.066Z,10.80
2022-07-30T03:57:20.198Z,16.00
2022-07-30T03:59:54.039Z,10.25
2022-07-30T04:02:20.897Z,9.00
2022-07-30T04:04:54.063Z,25.95
2022-07-30T04:07:20.851Z,14.52
2022-07-30T04:09:54.051Z,16.70
2022-07-30T04:12:20.907Z,12.70
2022-07-30T04:14:54.043Z,10.18
2022-07-30T04:17:48.176Z,10.57
2022-07-30T04:20:31.056Z,16.45
2022-07-30T04:22:59.162Z,12.15
2022-07-30T04:25:33.027Z,15.52
2022-07-30T04:28:02.854Z,11.20
2022-07-30T04:30:38.040Z,9.50
2022-07-30T04:33:05.394Z,10.55
2022-07-30T04:35:50.686Z,11.73
2022-07-30T04:38:27.031Z,9.90
2022-07-30T04:41:00.038Z,15.85
2022-07-30T04:43:27.052Z,11.43
2022-07-30T04:46:00.106Z,14.40
2022-07-30T04:48:28.610Z,7.90
2022-07-30T04:51:06.028Z,11.00
2022-07-30T04:53:33.219Z,14.75
2022-07-30T04:56:09.052Z,12.88
2022-07-30T04:58:37.427Z,13.98
2022-07-30T05:01:12.107Z,12.25
2022-07-30T05:03:40.331Z,12.98
2022-07-30T05:06:08.214Z,11.93
2022-07-30T05:08:42.115Z,14.32
2022-07-30T05:11:13.224Z,8.00
2022-07-30T05:13:51.028Z,11.07
2022-07-30T05:16:31.041Z,8.73
2022-07-30T05:19:11.047Z,6.95
2022-07-30T05:21:37.858Z,9.63
2022-07-30T05:24:12.021Z,13.27
2022-07-30T05:26:39.165Z,6.43
2022-07-30T05:29:19.663Z,6.65
2022-07-30T05:31:47.492Z,11.07
2022-07-30T05:34:21.201Z,6.68
2022-07-30T05:36:54.170Z,7.10
2022-07-30T05:39:21.054Z,6.97
2022-07-30T05:41:54.043Z,8.55
2022-07-30T05:44:24.035Z,7.93
2022-07-30T05:46:58.238Z,7.90
2022-07-30T05:49:25.193Z,12.70
2022-07-30T05:51:58.027Z,8.23
2022-07-30T05:54:25.988Z,8.90
2022-07-30T05:56:59.347Z,8.13
2022-07-30T05:59:26.345Z,6.93
2022-07-30T06:01:59.109Z,7.57
2022-07-30T06:04:32.211Z,7.28
2022-07-30T06:06:59.397Z,9.27
2022-07-30T06:09:33.001Z,9.13
2022-07-30T06:12:04.717Z,7.93
2022-07-30T06:14:39.023Z,11.50
2022-07-30T06:17:12.640Z,7.10
2022-07-30T06:19:46.040Z,6.68
2022-07-30T06:22:12.781Z,6.20
2022-07-30T06:24:46.083Z,7.30
2022-07-30T06:27:12.902Z,5.72
2022-07-30T06:29:46.000Z,8.63
2022-07-30T06:32:12.869Z,6.68
2022-07-30T06:34:45.999Z,8.38
2022-07-30T06:37:12.892Z,5.82
2022-07-30T06:39:57.753Z,7.28
2022-07-30T06:42:25.389Z,6.68
2022-07-30T06:44:59.018Z,6.90
2022-07-30T06:47:31.681Z,6.47
2022-07-30T06:50:05.035Z,6.57
2022-07-30T06:52:31.788Z,5.90
2022-07-30T06:54:58.465Z,5.95
2022-07-30T06:57:32.031Z,5.47
2022-07-30T07:00:06.026Z,4.93
2022-07-30T07:02:39.025Z,5.03
2022-07-30T07:05:07.385Z,5.03
2022-07-30T07:07:52.423Z,4.80
2022-07-30T07:10:24.999Z,6.55
2022-07-30T07:12:58.006Z,5.68
2022-07-30T07:15:36.179Z,4.10
2022-07-30T07:18:19.054Z,6.78
2022-07-30T07:20:46.738Z,8.05
2022-07-30T07:23:20.150Z,7.60
2022-07-30T07:25:47.447Z,5.80
2022-07-30T07:28:14.352Z,8.90
2022-07-30T07:30:51.114Z,4.68
2022-07-30T07:33:18.193Z,4.45
2022-07-30T07:35:51.005Z,4.13
2022-07-30T07:38:25.021Z,4.80
2022-07-30T07:40:57.991Z,4.72
2022-07-30T07:43:32.188Z,4.45
2022-07-30T07:45:59.158Z,5.97
2022-07-30T07:48:25.958Z,6.00
2022-07-30T07:51:00.596Z,4.55
2022-07-30T07:53:27.617Z,8.20
2022-07-30T07:55:54.365Z,6.57
2022-07-30T07:58:31.030Z,7.90
2022-07-30T08:00:58.487Z,4.78
2022-07-30T08:03:31.993Z,8.18
2022-07-30T08:06:06.223Z,12.13
2022-07-30T08:08:40.015Z,5.70
2022-07-30T08:11:14.000Z,5.72
2022-07-30T08:13:51.704Z,4.82
2022-07-30T08:16:26.155Z,5.25
2022-07-30T08:19:06.049Z,7.05
2022-07-30T08:21:39.200Z,5.80
2022-07-30T08:24:06.378Z,5.40
2022-07-30T08:26:39.995Z,5.38
2022-07-30T08:29:31.997Z,6.10
2022-07-30T08:32:19.040Z,6.50
2022-07-30T08:38:00.008Z,5.57
2022-07-30T08:43:46.983Z,5.70
2022-07-30T08:46:36.322Z,5.55
2022-07-30T08:49:29.984Z,7.13
2022-07-30T08:52:17.224Z,4.70
2022-07-30T08:55:11.976Z,5.18
2022-07-30T08:57:59.150Z,6.38
2022-07-30T09:00:53.190Z,7.55
2022-07-30T09:03:44.110Z,7.35
2022-07-30T09:06:37.982Z,9.82
2022-07-30T09:09:24.993Z,5.00
2022-07-30T09:15:31.899Z,5.65
2022-07-30T09:18:11.974Z,8.30
2022-07-30T09:20:59.779Z,7.15
2022-07-30T09:24:08.977Z,5.45
2022-07-30T09:26:57.074Z,5.72
2022-07-30T09:29:33.991Z,6.13
2022-07-30T09:32:04.427Z,5.65
2022-07-30T09:34:41.025Z,5.40
2022-07-30T09:37:10.891Z,6.10
2022-07-30T09:39:56.784Z,5.40
2022-07-30T09:42:28.923Z,4.85
2022-07-30T09:45:16.012Z,5.93
2022-07-30T09:50:31.116Z,6.97
2022-07-30T09:53:07.801Z,6.10
2022-07-30T09:55:43.104Z,5.45
2022-07-30T09:58:27.471Z,5.07
2022-07-30T10:01:01.442Z,4.68
2022-07-30T10:03:42.017Z,4.63
2022-07-30T10:06:11.198Z,5.50
2022-07-30T10:08:58.008Z,5.15
2022-07-30T10:11:26.749Z,5.38
2022-07-30T10:14:07.979Z,4.50
2022-07-30T10:16:42.087Z,7.07
2022-07-30T10:19:23.316Z,7.97
2022-07-30T10:22:12.958Z,4.28
2022-07-30T10:24:51.980Z,4.00
2022-07-30T10:27:20.404Z,4.03
2022-07-30T10:29:53.960Z,5.25
2022-07-30T10:32:30.744Z,6.18
2022-07-30T10:35:05.134Z,3.85
2022-07-30T10:37:40.976Z,4.68
2022-07-30T10:40:16.818Z,4.30
2022-07-30T10:43:09.954Z,3.60
2022-07-30T10:45:53.986Z,6.25
2022-07-30T10:48:22.365Z,4.40
2022-07-30T10:50:58.979Z,4.70
2022-07-30T10:53:44.972Z,4.57
2022-07-30T10:56:18.885Z,4.72
2022-07-30T10:59:14.934Z,3.90
2022-07-30T11:01:51.808Z,3.83
2022-07-30T11:04:29.995Z,4.50
2022-07-30T11:07:30.094Z,4.15
2022-07-30T11:10:05.475Z,3.95
2022-07-30T11:12:53.102Z,3.65
2022-07-30T11:15:28.051Z,3.75
2022-07-30T11:18:12.909Z,4.53
2022-07-30T11:20:48.972Z,4.72
2022-07-30T11:23:35.495Z,3.45
2022-07-30T11:26:14.366Z,3.40
2022-07-30T11:28:44.909Z,3.38
2022-07-30T11:31:56.360Z,4.47
2022-07-30T11:34:25.887Z,9.55
2022-07-30T11:37:32.408Z,4.18
2022-07-30T11:40:02.707Z,3.95
2022-07-30T11:42:41.946Z,4.45
2022-07-30T11:45:18.298Z,7.60
2022-07-30T11:47:52.979Z,5.00
2022-07-30T11:50:28.949Z,3.75
2022-07-30T11:53:17.182Z,3.70
2022-07-30T11:56:06.226Z,3.90
2022-07-30T11:58:41.968Z,6.20
2022-07-30T12:01:18.149Z,3.97
2022-07-30T12:06:27.946Z,4.43
2022-07-30T12:09:01.157Z,3.83
2022-07-30T12:11:35.230Z,3.10
2022-07-30T12:14:09.031Z,7.18
2022-07-30T12:16:49.025Z,6.90
2022-07-30T12:19:22.473Z,6.70
2022-07-30T12:21:56.065Z,5.55
2022-07-30T12:24:26.946Z,5.43
2022-07-30T12:27:13.978Z,4.78
2022-07-30T12:29:47.946Z,8.82
2022-07-30T12:32:14.804Z,3.72
2022-07-30T12:35:00.970Z,3.95
2022-07-30T12:37:27.998Z,3.05
2022-07-30T12:40:20.126Z,2.88
2022-07-30T12:42:53.645Z,3.13
2022-07-30T12:45:52.090Z,4.50
2022-07-30T12:48:28.954Z,3.72
2022-07-30T12:51:16.972Z,3.95
2022-07-30T12:53:49.939Z,3.83
2022-07-30T12:56:25.949Z,6.55
2022-07-30T12:58:54.258Z,4.13
2022-07-30T13:01:51.994Z,7.15
2022-07-30T13:04:19.458Z,4.25
2022-07-30T13:07:17.053Z,7.60
2022-07-30T13:12:15.049Z,4.65
2022-07-30T13:14:47.958Z,5.88
2022-07-30T13:17:27.993Z,4.80
2022-07-30T13:20:00.984Z,4.10
2022-07-30T13:22:33.957Z,5.03
2022-07-30T13:25:00.657Z,4.53
2022-07-30T13:27:28.993Z,5.30
2022-07-30T13:30:01.939Z,4.82
2022-07-30T13:32:28.686Z,4.50
2022-07-30T13:35:02.234Z,5.45
2022-07-30T13:37:38.027Z,5.35
2022-07-30T13:40:12.952Z,4.47
2022-07-30T13:42:39.645Z,7.53
2022-07-30T13:45:13.942Z,5.10
2022-07-30T13:47:46.970Z,4.40
2022-07-30T13:50:19.990Z,4.90
2022-07-30T13:52:54.748Z,4.55
2022-07-30T13:55:23.684Z,3.72
2022-07-30T13:57:56.922Z,3.95
2022-07-30T14:00:24.632Z,4.60
2022-07-30T14:02:53.826Z,4.25
2022-07-30T14:05:26.927Z,4.30
2022-07-30T14:08:00.937Z,5.38
2022-07-30T14:10:33.923Z,3.53
2022-07-30T14:13:01.499Z,4.20
2022-07-30T14:15:40.173Z,2.75
2022-07-30T14:18:21.904Z,2.83
2022-07-30T14:20:55.936Z,3.00
2022-07-30T14:23:22.728Z,2.20
2022-07-30T14:25:55.930Z,5.68
2022-07-30T14:28:28.936Z,2.40
2022-07-30T14:30:55.954Z,1.70
2022-07-30T14:33:22.777Z,1.50
2022-07-30T14:35:56.038Z,2.10
2022-07-30T14:38:28.923Z,3.40
2022-07-30T14:41:01.918Z,3.08
2022-07-30T14:43:28.670Z,3.70
2022-07-30T14:46:01.990Z,8.07
2022-07-30T14:48:28.739Z,2.60
2022-07-30T14:51:15.997Z,3.95
2022-07-30T14:53:47.305Z,3.97
2022-07-30T14:56:20.914Z,3.30
2022-07-30T14:58:47.816Z,11.40
2022-07-30T15:01:21.031Z,3.88
2022-07-30T15:03:53.941Z,4.18
2022-07-30T15:06:20.675Z,5.22
2022-07-30T15:08:53.987Z,3.28
2022-07-30T15:11:21.990Z,2.60
2022-07-30T15:13:50.654Z,2.90
2022-07-30T15:16:24.930Z,2.42
2022-07-30T15:18:51.705Z,2.58
2022-07-30T15:21:24.927Z,2.65
2022-07-30T15:23:52.496Z,5.60
2022-07-30T15:26:25.945Z,2.40
2022-07-30T15:28:52.687Z,2.83
2022-07-30T15:31:25.930Z,2.15
2022-07-30T15:33:58.926Z,2.22
2022-07-30T15:36:25.655Z,3.92
2022-07-30T15:38:58.939Z,3.95
2022-07-30T15:41:25.747Z,5.05
2022-07-30T15:43:58.947Z,2.95
2022-07-30T15:46:25.703Z,4.22
2022-07-30T15:48:58.956Z,2.58
2022-07-30T15:51:31.928Z,2.88
2022-07-30T15:53:58.653Z,3.22
2022-07-30T15:56:26.529Z,1.75
2022-07-30T15:59:00.076Z,1.75
2022-07-30T16:01:26.878Z,1.30
2022-07-30T16:04:00.917Z,1.80
2022-07-30T16:06:27.597Z,4.38
2022-07-30T16:09:00.918Z,4.13
2022-07-30T16:11:27.741Z,1.98
2022-07-30T16:14:05.922Z,1.63
2022-07-30T16:16:40.194Z,3.78
2022-07-30T16:19:20.081Z,1.30
2022-07-30T16:21:46.831Z,1.80
2022-07-30T16:24:13.635Z,4.60
2022-07-30T16:26:46.925Z,4.63
2022-07-30T16:29:14.118Z,1.65
2022-07-30T16:31:47.929Z,1.88
2022-07-30T16:34:16.028Z,1.65
2022-07-30T16:36:49.933Z,1.50
2022-07-30T16:39:16.700Z,1.77
2022-07-30T16:41:49.911Z,3.20
2022-07-30T16:44:16.681Z,3.38
2022-07-30T16:46:50.097Z,1.92
2022-07-30T16:49:17.247Z,1.92
2022-07-30T16:51:44.112Z,2.40
2022-07-30T16:54:18.326Z,1.90
2022-07-30T16:56:45.405Z,2.95
2022-07-30T16:59:20.906Z,2.75
2022-07-30T17:01:48.267Z,1.80
2022-07-30T17:04:15.101Z,4.97
2022-07-30T17:06:50.881Z,3.95
2022-07-30T17:09:36.803Z,5.03
2022-07-30T17:12:16.888Z,2.92
2022-07-30T17:14:43.646Z,2.67
2022-07-30T17:17:18.917Z,5.03
2022-07-30T17:19:52.437Z,4.05
2022-07-30T17:22:25.897Z,2.30
2022-07-30T17:24:58.925Z,2.63
2022-07-30T17:27:30.309Z,1.30
2022-07-30T17:30:03.936Z,1.30
2022-07-30T17:32:30.762Z,5.72
2022-07-30T17:35:04.102Z,1.90
2022-07-30T17:37:30.886Z,3.63
2022-07-30T17:40:28.678Z,1.73
2022-07-30T17:42:50.735Z,3.00
2022-07-30T17:45:23.928Z,6.45
2022-07-30T17:47:50.656Z,2.55
2022-07-30T17:50:23.927Z,3.95
2022-07-30T17:52:57.943Z,2.95
2022-07-30T17:55:25.361Z,1.80
2022-07-30T17:57:52.183Z,1.90
2022-07-30T18:00:25.889Z,3.10
2022-07-30T18:02:52.964Z,6.65
2022-07-30T18:05:26.935Z,1.98
2022-07-30T18:07:53.708Z,4.72
2022-07-30T18:10:26.961Z,1.50
2022-07-30T18:12:53.867Z,1.60
2022-07-30T18:15:27.089Z,2.03
2022-07-30T18:18:09.105Z,3.08
2022-07-30T18:20:49.916Z,1.30
2022-07-30T18:23:19.125Z,2.25
2022-07-30T18:25:54.384Z,2.15
2022-07-30T18:28:21.882Z,2.85
2022-07-30T18:30:48.646Z,1.52
2022-07-30T18:33:23.270Z,8.80
2022-07-30T18:35:56.931Z,8.45
2022-07-30T18:38:23.661Z,1.80
2022-07-30T18:41:05.965Z,5.07
2022-07-30T18:43:32.694Z,6.30
2022-07-30T18:46:21.906Z,1.35
2022-07-30T18:48:48.938Z,1.65
2022-07-30T18:51:22.891Z,2.10
2022-07-30T18:53:55.979Z,1.63
2022-07-30T18:56:23.236Z,1.58
2022-07-30T18:58:56.874Z,2.88
2022-07-30T19:01:24.298Z,1.35
2022-07-30T19:03:57.881Z,2.90
2022-07-30T19:06:31.905Z,2.45
2022-07-30T19:09:12.508Z,2.90
2022-07-30T19:11:45.499Z,1.80
2022-07-30T19:14:19.913Z,1.80
2022-07-30T19:17:13.898Z,2.00
2022-07-30T19:19:48.887Z,1.77
2022-07-30T19:22:15.787Z,1.25
2022-07-30T19:24:49.872Z,1.40
2022-07-30T19:27:16.831Z,1.83
2022-07-30T19:29:51.869Z,1.52
2022-07-30T19:32:24.907Z,3.80
2022-07-30T19:34:53.820Z,1.65
2022-07-30T19:37:26.878Z,1.20
2022-07-30T19:40:06.082Z,2.85
2022-07-30T19:42:55.964Z,1.45
2022-07-30T19:45:23.454Z,2.45
2022-07-30T19:47:56.893Z,3.55
2022-07-30T19:50:27.243Z,1.50
2022-07-30T19:52:54.870Z,2.33
2022-07-30T19:55:35.168Z,4.05
2022-07-30T19:58:15.939Z,1.23
2022-07-30T20:00:49.326Z,1.67
2022-07-30T20:03:25.422Z,3.05
2022-07-30T20:05:57.285Z,2.40
2022-07-30T20:08:32.873Z,4.05
2022-07-30T20:11:01.578Z,2.85
2022-07-30T20:13:45.171Z,1.67
2022-07-30T20:16:32.865Z,3.03
2022-07-30T20:19:05.428Z,2.67
2022-07-30T20:21:56.742Z,1.98
2022-07-30T20:24:24.711Z,1.48
2022-07-30T20:26:58.869Z,2.05
2022-07-30T20:29:31.885Z,1.77
2022-07-30T20:31:59.364Z,2.05
2022-07-30T20:34:32.858Z,1.48
2022-07-30T20:36:59.574Z,2.55
2022-07-30T20:39:48.878Z,1.70
2022-07-30T20:42:16.142Z,6.93
2022-07-30T20:44:51.880Z,2.60
2022-07-30T20:47:37.531Z,2.70
2022-07-30T20:50:14.413Z,3.22
2022-07-30T20:52:46.510Z,2.97
2022-07-30T20:55:22.888Z,2.45
2022-07-30T20:57:58.057Z,2.45
2022-07-30T21:00:40.885Z,4.50
2022-07-30T21:03:14.916Z,2.08
2022-07-30T21:05:52.598Z,2.08
2022-07-30T21:08:44.850Z,1.90
2022-07-30T21:11:12.466Z,2.00
2022-07-30T21:13:46.887Z,1.70
2022-07-30T21:16:36.859Z,2.13
2022-07-30T21:19:15.878Z,2.00
2022-07-30T21:21:47.964Z,1.70
2022-07-30T21:24:28.851Z,4.38
2022-07-30T21:27:01.842Z,2.55
2022-07-30T21:29:30.994Z,3.83
2022-07-30T21:32:03.853Z,2.10
2022-07-30T21:34:42.030Z,7.57
2022-07-30T21:37:09.251Z,1.77
2022-07-30T21:39:42.854Z,1.95
2022-07-30T21:42:09.668Z,2.45
2022-07-30T21:44:43.857Z,2.60
2022-07-30T21:47:13.287Z,5.60
2022-07-30T21:49:46.874Z,2.00
2022-07-30T21:52:20.863Z,2.45
2022-07-30T21:54:56.924Z,2.55
2022-07-30T21:57:30.226Z,1.98
2022-07-30T22:00:04.833Z,3.75
2022-07-30T22:02:37.889Z,1.77
2022-07-30T22:05:20.074Z,2.08
2022-07-30T22:07:56.859Z,1.70
2022-07-30T22:10:23.554Z,4.43
2022-07-30T22:12:56.859Z,3.25
2022-07-30T22:15:23.809Z,2.17
2022-07-30T22:18:05.847Z,1.40
2022-07-30T22:20:46.823Z,2.17
2022-07-30T22:23:19.856Z,2.10
2022-07-30T22:26:00.155Z,1.77
2022-07-30T22:28:27.056Z,4.95
2022-07-30T22:31:01.872Z,1.90
2022-07-30T22:33:39.035Z,1.70
2022-07-30T22:36:06.081Z,1.95
2022-07-30T22:38:42.878Z,2.00
2022-07-30T22:41:25.870Z,1.95
2022-07-30T22:44:01.854Z,2.63
2022-07-30T22:46:30.074Z,1.85
2022-07-30T22:48:57.983Z,3.50
2022-07-30T22:51:50.250Z,5.93
2022-07-30T22:54:19.471Z,3.17
2022-07-30T22:56:56.850Z,1.80
2022-07-30T22:59:58.277Z,2.33
2022-07-30T23:02:23.839Z,2.03
2022-07-30T23:05:03.191Z,2.28
2022-07-30T23:07:38.960Z,3.85
2022-07-30T23:10:18.075Z,3.35
2022-07-30T23:12:48.988Z,4.22
2022-07-30T23:15:22.835Z,2.63
2022-07-30T23:18:09.882Z,2.10
2022-07-30T23:23:10.146Z,3.67
2022-07-30T23:25:44.884Z,3.33
2022-07-30T23:28:11.821Z,3.10
2022-07-30T23:30:45.283Z,2.30
2022-07-30T23:33:11.962Z,2.05
2022-07-30T23:35:38.800Z,4.18
2022-07-30T23:38:11.826Z,2.20
2022-07-30T23:40:38.750Z,2.38
2022-07-30T23:43:11.845Z,2.30
2022-07-30T23:45:44.821Z,4.47
2022-07-30T23:48:18.846Z,3.08
2022-07-30T23:50:45.580Z,1.70
2022-07-30T23:53:18.984Z,2.50
2022-07-30T23:55:54.871Z,2.47
2022-07-30T23:58:27.819Z,2.28
